Time;durP1;ratioP1;P1;durP2;ratioP2;P2;SDS_P1;SDS_P2;PMS_P1;PMS_P2;Temp;Humidity;BMP_temperature;BMP_pressure;BME280_temperature;BME280_humidity;BME280_pressure;Samples;Min_cycle;Max_cycle;Signal;HPM_P1;HPM_P2
2021/12/12 04:03:07;;;;;;;10.18;3.25;;;4.80;86.20;;;;;;5091582;28;20110;-47
2021/12/12 04:05:32;;;;;;;8.45;3.40;;;4.80;86.60;;;;;;5091287;28;20020;-48
2021/12/12 04:07:58;;;;;;;12.18;4.22;;;4.80;86.80;;;;;;5090496;28;20081;-48
2021/12/12 04:10:24;;;;;;;11.52;3.20;;;4.90;86.70;;;;;;5090737;28;20052;-49
2021/12/12 04:12:52;;;;;;;11.68;3.28;;;4.90;86.70;;;;;;5090588;28;20048;-50
2021/12/12 04:15:19;;;;;;;10.82;3.95;;;4.90;87.00;;;;;;5089172;28;20111;-51
2021/12/12 04:17:46;;;;;;;12.38;3.13;;;4.90;87.20;;;;;;5090827;28;20062;-49
2021/12/12 04:20:29;;;;;;;7.78;3.40;;;4.90;87.10;;;;;;5090401;28;20032;-49
2021/12/12 04:22:54;;;;;;;12.65;4.60;;;4.90;87.30;;;;;;5090451;28;20020;-51
2021/12/12 04:25:21;;;;;;;17.00;4.60;;;4.90;88.00;;;;;;5089983;28;20574;-50
2021/12/12 04:27:47;;;;;;;8.85;3.38;;;4.80;87.90;;;;;;5090043;28;20036;-50
2021/12/12 04:30:14;;;;;;;8.73;3.95;;;4.90;88.20;;;;;;5090259;28;20460;-49
2021/12/12 04:32:41;;;;;;;9.60;3.97;;;4.90;87.90;;;;;;5088508;28;20028;-48
2021/12/12 04:35:17;;;;;;;5.68;3.33;;;4.80;88.20;;;;;;5089824;28;20028;-49
2021/12/12 04:37:44;;;;;;;12.02;4.65;;;4.90;88.60;;;;;;5089029;28;20400;-49
2021/12/12 04:40:15;;;;;;;12.02;3.75;;;4.90;88.30;;;;;;5090051;28;20559;-50
2021/12/12 04:42:42;;;;;;;9.73;3.22;;;4.90;88.60;;;;;;5089906;28;20471;-52
2021/12/12 04:45:21;;;;;;;12.32;3.30;;;4.80;88.80;;;;;;5089682;28;20020;-48
2021/12/12 04:50:58;;;;;;;14.45;4.32;;;5.00;88.80;;;;;;5090117;28;20040;-49
2021/12/12 04:53:48;;;;;;;12.75;4.35;;;5.00;88.60;;;;;;5089826;28;20027;-48
2021/12/12 04:56:26;;;;;;;12.77;4.47;;;4.90;88.80;;;;;;5089376;28;20035;-48
2021/12/12 04:59:07;;;;;;;10.15;4.22;;;4.80;89.10;;;;;;5089488;28;20028;-48
2021/12/12 05:01:43;;;;;;;12.55;4.65;;;4.90;89.10;;;;;;5088142;28;20048;-51
2021/12/12 05:04:27;;;;;;;12.85;4.10;;;5.00;88.80;;;;;;5089658;28;20025;-51
2021/12/12 05:07:06;;;;;;;16.00;4.43;;;5.00;88.90;;;;;;5089583;28;20031;-49
2021/12/12 05:09:42;;;;;;;8.82;3.78;;;4.90;89.10;;;;;;5087916;28;20040;-50
2021/12/12 05:12:23;;;;;;;8.40;3.95;;;4.90;89.90;;;;;;5087914;28;20073;-50
2021/12/12 05:15:01;;;;;;;12.65;4.03;;;4.90;89.90;;;;;;5075751;28;20108;-49
2021/12/12 05:17:34;;;;;;;11.18;3.53;;;4.80;90.30;;;;;;5074148;28;20036;-49
2021/12/12 05:20:03;;;;;;;9.73;4.13;;;4.80;90.80;;;;;;5075805;28;20503;-48
2021/12/12 05:22:43;;;;;;;12.27;4.85;;;4.80;91.20;;;;;;5075252;28;20108;-49
2021/12/12 05:25:15;;;;;;;13.80;5.65;;;4.80;91.60;;;;;;5074058;28;20357;-49
2021/12/12 05:27:42;;;;;;;7.20;3.42;;;4.80;91.80;;;;;;5075545;28;20059;-49
2021/12/12 05:30:13;;;;;;;13.30;5.60;;;4.70;92.00;;;;;;5075603;28;20032;-52
2021/12/12 05:32:40;;;;;;;13.38;6.43;;;4.70;92.70;;;;;;5075178;28;20024;-38
2021/12/12 05:35:10;;;;;;;14.57;4.57;;;4.70;92.70;;;;;;5075174;28;20032;-42
2021/12/12 05:37:37;;;;;;;13.88;5.38;;;4.70;92.90;;;;;;5075308;28;20029;-45
2021/12/12 05:40:08;;;;;;;13.55;5.10;;;4.60;93.20;;;;;;5075307;28;20099;-39
2021/12/12 05:42:34;;;;;;;23.17;6.95;;;4.60;93.50;;;;;;5075587;28;20021;-52
2021/12/12 05:45:03;;;;;;;18.95;5.65;;;4.60;93.60;;;;;;5075618;28;20024;-52
2021/12/12 05:47:29;;;;;;;19.90;6.32;;;4.50;93.80;;;;;;5076102;28;20461;-48
2021/12/12 05:49:56;;;;;;;18.65;6.80;;;4.60;94.10;;;;;;5075066;28;20051;-51
2021/12/12 05:52:22;;;;;;;18.95;6.85;;;4.60;94.20;;;;;;5074880;28;20016;-38
2021/12/12 05:54:51;;;;;;;14.77;5.22;;;4.50;94.20;;;;;;5074892;28;20032;-47
2021/12/12 05:57:24;;;;;;;18.13;5.63;;;4.60;94.30;;;;;;5074774;28;20059;-51
2021/12/12 05:59:50;;;;;;;28.25;6.03;;;4.60;94.40;;;;;;5073441;28;20032;-48
2021/12/12 06:02:17;;;;;;;11.25;5.53;;;4.50;94.40;;;;;;5074583;28;20074;-49
2021/12/12 06:04:42;;;;;;;17.30;7.97;;;4.50;94.60;;;;;;5074638;28;20086;-47
2021/12/12 06:07:15;;;;;;;14.25;4.80;;;4.60;94.70;;;;;;5074703;28;20024;-49
2021/12/12 06:09:41;;;;;;;8.70;4.72;;;4.50;94.70;;;;;;5074564;28;20108;-48
2021/12/12 06:12:08;;;;;;;20.17;6.50;;;4.60;94.70;;;;;;5074770;28;20052;-50
2021/12/12 06:14:34;;;;;;;12.13;4.97;;;4.60;94.70;;;;;;5074371;28;20107;-47
2021/12/12 06:17:01;;;;;;;16.88;5.90;;;4.50;94.70;;;;;;5074297;28;20484;-52
2021/12/12 06:19:31;;;;;;;14.45;5.68;;;4.60;94.80;;;;;;5074555;28;20476;-50
2021/12/12 06:21:59;;;;;;;16.15;6.05;;;4.60;94.80;;;;;;5074467;28;20097;-48
2021/12/12 06:24:26;;;;;;;17.15;5.20;;;4.60;94.90;;;;;;5072168;28;20016;-48
2021/12/12 06:26:55;;;;;;;20.55;6.35;;;4.60;94.90;;;;;;5074367;28;20027;-49
2021/12/12 06:29:21;;;;;;;21.38;7.30;;;4.60;94.90;;;;;;5073416;28;20046;-50
2021/12/12 06:31:50;;;;;;;18.30;6.85;;;4.70;94.90;;;;;;5073933;28;20037;-53
2021/12/12 06:34:17;;;;;;;11.55;7.30;;;4.70;94.80;;;;;;5074141;28;20036;-48
2021/12/12 06:36:46;;;;;;;13.02;5.88;;;4.70;95.00;;;;;;5074002;28;20439;-52
2021/12/12 06:39:14;;;;;;;17.13;7.85;;;4.70;95.00;;;;;;5074174;28;20099;-49
2021/12/12 06:41:40;;;;;;;15.85;6.22;;;4.70;95.10;;;;;;5074015;28;20016;-49
2021/12/12 06:44:09;;;;;;;14.55;5.70;;;4.70;95.20;;;;;;5074051;28;20032;-48
2021/12/12 06:46:37;;;;;;;16.95;7.05;;;4.70;95.30;;;;;;5073940;28;20029;-47
2021/12/12 06:49:05;;;;;;;14.93;7.05;;;4.70;95.30;;;;;;5073640;28;20021;-49
2021/12/12 06:51:34;;;;;;;18.27;6.88;;;4.70;95.40;;;;;;5073790;28;20037;-47
2021/12/12 06:54:00;;;;;;;18.83;7.78;;;4.80;95.40;;;;;;5075228;28;20056;-49
2021/12/12 06:56:28;;;;;;;16.25;8.30;;;4.80;95.50;;;;;;5073867;28;20039;-48
2021/12/12 06:58:57;;;;;;;20.95;6.65;;;4.80;95.50;;;;;;5073460;28;20028;-47
2021/12/12 07:01:28;;;;;;;16.70;7.57;;;4.80;95.60;;;;;;5073263;28;20044;-51
2021/12/12 07:03:56;;;;;;;15.57;7.03;;;4.90;95.70;;;;;;5073745;28;20441;-49
2021/12/12 07:06:24;;;;;;;12.32;5.85;;;4.80;95.60;;;;;;5073437;28;20020;-49
2021/12/12 07:08:51;;;;;;;15.77;6.63;;;4.90;95.70;;;;;;5073860;28;20025;-47
2021/12/12 07:11:20;;;;;;;13.75;7.13;;;4.90;95.70;;;;;;5073384;28;20122;-48
2021/12/12 07:13:47;;;;;;;8.77;5.20;;;5.00;95.70;;;;;;5073294;28;20035;-50
2021/12/12 07:16:14;;;;;;;14.50;6.78;;;5.00;95.60;;;;;;5076002;28;20028;-50
2021/12/12 07:18:40;;;;;;;9.85;5.32;;;5.10;95.60;;;;;;5073933;28;20470;-49
2021/12/12 07:21:16;;;;;;;7.47;3.85;;;5.20;95.60;;;;;;5073286;28;20123;-49
2021/12/12 07:23:44;;;;;;;8.60;5.28;;;5.20;95.50;;;;;;5072174;28;20048;-48
2021/12/12 07:26:13;;;;;;;10.00;6.25;;;5.20;95.50;;;;;;5073344;28;20465;-47
2021/12/12 07:28:40;;;;;;;11.32;5.45;;;5.30;95.40;;;;;;5073302;28;20103;-48
2021/12/12 07:31:12;;;;;;;10.85;4.60;;;5.30;95.40;;;;;;5073023;28;20024;-48
2021/12/12 07:33:40;;;;;;;6.90;4.30;;;5.30;95.40;;;;;;5073248;28;20404;-48
2021/12/12 07:36:09;;;;;;;8.23;4.72;;;5.40;95.30;;;;;;5072735;28;20463;-48
2021/12/12 07:38:40;;;;;;;7.38;5.18;;;5.30;95.30;;;;;;5055319;28;20032;-37
2021/12/12 07:41:06;;;;;;;7.85;4.68;;;5.40;95.30;;;;;;5073218;28;20119;-38
2021/12/12 07:43:33;;;;;;;9.15;3.97;;;5.40;95.20;;;;;;5072906;28;20020;-39
2021/12/12 07:46:00;;;;;;;9.77;4.25;;;5.50;95.20;;;;;;5071997;28;20031;-37
2021/12/12 07:48:26;;;;;;;6.97;4.70;;;5.50;95.10;;;;;;5073823;28;20054;-37
2021/12/12 07:50:53;;;;;;;11.88;5.47;;;5.50;95.20;;;;;;5073184;28;20099;-37
2021/12/12 07:53:20;;;;;;;4.75;3.00;;;5.60;95.20;;;;;;5072778;28;20024;-37
2021/12/12 07:55:47;;;;;;;7.82;5.32;;;5.60;95.10;;;;;;5073198;28;20021;-37
2021/12/12 07:58:16;;;;;;;8.18;4.88;;;5.60;95.30;;;;;;5075248;28;20021;-38
2021/12/12 14:03:18;;;;;;;25.15;16.55;;;7.40;97.90;;;;;;5071110;28;20461;-49
2021/12/12 14:05:47;;;;;;;22.73;15.30;;;7.50;98.00;;;;;;5069998;28;20503;-54
2021/12/12 14:08:16;;;;;;;20.13;12.88;;;7.60;97.90;;;;;;5069988;28;20027;-49
2021/12/12 14:10:48;;;;;;;21.83;15.48;;;7.60;97.90;;;;;;5070000;28;20448;-51
2021/12/12 14:13:15;;;;;;;19.33;12.73;;;7.60;98.00;;;;;;5070162;28;20377;-49
2021/12/12 14:15:48;;;;;;;26.20;16.10;;;7.60;98.00;;;;;;5070198;28;20020;-53
2021/12/12 14:18:14;;;;;;;28.17;16.83;;;7.70;98.00;;;;;;5070027;28;20035;-52
2021/12/12 14:20:52;;;;;;;29.25;17.33;;;7.70;98.00;;;;;;5069760;28;20468;-52
2021/12/12 14:23:25;;;;;;;26.20;16.77;;;7.70;98.00;;;;;;5069798;28;20028;-51
2021/12/12 14:26:03;;;;;;;23.35;14.85;;;7.70;97.90;;;;;;5069824;28;20107;-52
2021/12/12 14:28:32;;;;;;;14.55;10.07;;;7.70;97.90;;;;;;5069821;28;20048;-51
2021/12/12 14:30:59;;;;;;;22.55;14.57;;;7.70;97.90;;;;;;5069440;28;20100;-49
2021/12/12 14:33:31;;;;;;;19.55;11.57;;;7.70;97.90;;;;;;5069433;28;20032;-53
2021/12/12 14:36:03;;;;;;;14.38;10.82;;;7.70;97.90;;;;;;5069432;28;20051;-48
2021/12/12 14:38:31;;;;;;;19.45;12.65;;;7.80;98.00;;;;;;5069364;28;20029;-50
2021/12/12 14:40:59;;;;;;;17.85;12.30;;;7.80;98.00;;;;;;5068075;28;20032;-52
2021/12/12 14:43:36;;;;;;;18.42;11.30;;;7.80;97.90;;;;;;5069505;28;20048;-49
2021/12/12 14:46:25;;;;;;;16.05;10.38;;;7.80;97.90;;;;;;5069530;28;20017;-53
2021/12/12 14:48:56;;;;;;;9.93;7.43;;;7.80;97.90;;;;;;5069660;28;20027;-51
2021/12/12 14:51:26;;;;;;;16.60;11.43;;;7.80;97.90;;;;;;5069371;28;20483;-52
2021/12/12 14:53:55;;;;;;;13.45;8.93;;;7.80;97.90;;;;;;5069345;28;20059;-52
2021/12/12 14:56:35;;;;;;;14.07;10.00;;;7.80;97.90;;;;;;5070381;28;20052;-52
2021/12/12 14:59:04;;;;;;;16.15;10.05;;;7.80;97.90;;;;;;5069475;28;20101;-52
2021/12/12 15:01:50;;;;;;;14.55;10.27;;;7.80;97.90;;;;;;5076620;28;20056;-52
2021/12/12 15:04:17;;;;;;;13.52;9.88;;;7.80;97.90;;;;;;5089620;28;20476;-50
2021/12/12 15:06:45;;;;;;;12.50;9.07;;;7.80;97.90;;;;;;5089423;28;20024;-52
2021/12/12 15:09:23;;;;;;;15.80;10.07;;;7.80;97.90;;;;;;5071229;28;20427;-50
2021/12/12 15:11:59;;;;;;;16.45;10.27;;;7.80;98.00;;;;;;5088997;28;20086;-52
2021/12/12 15:14:27;;;;;;;16.38;11.10;;;7.80;98.00;;;;;;5075747;28;20044;-52
2021/12/12 15:16:55;;;;;;;14.77;11.18;;;7.80;98.00;;;;;;5075932;28;20021;-53
2021/12/12 15:19:30;;;;;;;16.08;11.48;;;7.80;98.00;;;;;;5075483;28;20028;-52
2021/12/12 15:22:18;;;;;;;13.77;10.20;;;7.80;98.00;;;;;;5075420;28;20070;-51
2021/12/12 15:24:56;;;;;;;17.08;12.30;;;7.80;98.00;;;;;;5075424;28;20452;-49
2021/12/12 15:27:29;;;;;;;16.45;12.00;;;7.90;98.00;;;;;;5075217;28;20027;-49
2021/12/12 15:29:57;;;;;;;17.48;12.25;;;7.90;98.00;;;;;;5075313;28;20495;-51
2021/12/12 15:32:28;;;;;;;14.35;10.38;;;7.90;98.00;;;;;;5075280;28;20150;-49
2021/12/12 15:35:13;;;;;;;;;;;7.90;98.00;;;;;;5075787;28;20038;-50
2021/12/12 15:37:45;;;;;;;15.77;10.98;;;7.90;98.00;;;;;;5075817;28;20284;-49
2021/12/12 15:40:13;;;;;;;16.95;11.88;;;8.00;98.00;;;;;;5075644;28;20033;-53
2021/12/12 15:42:41;;;;;;;20.25;11.90;;;8.00;98.00;;;;;;5056852;28;20404;-50
2021/12/12 15:45:29;;;;;;;19.38;13.07;;;8.00;97.90;;;;;;5075336;28;20024;-49
2021/12/12 15:47:56;;;;;;;17.48;11.43;;;8.00;97.90;;;;;;5074881;28;20100;-49
2021/12/12 15:50:27;;;;;;;15.32;11.88;;;7.90;97.90;;;;;;5056886;28;20501;-51
2021/12/12 15:52:55;;;;;;;22.92;13.52;;;8.00;97.90;;;;;;5075288;28;20028;-50
2021/12/12 15:55:34;;;;;;;21.67;12.40;;;8.00;97.90;;;;;;5074685;28;20020;-51
2021/12/12 15:58:19;;;;;;;23.60;14.63;;;7.90;97.90;;;;;;5074817;28;20051;-51
2021/12/12 16:01:02;;;;;;;20.83;12.35;;;8.00;97.80;;;;;;5076330;28;20025;-51
2021/12/12 16:03:28;;;;;;;17.70;13.02;;;8.00;97.80;;;;;;5056010;28;20035;-50
2021/12/12 16:06:00;;;;;;;23.88;14.23;;;8.00;97.80;;;;;;5074701;28;20464;-49
2021/12/12 16:08:46;;;;;;;21.70;14.75;;;8.00;97.80;;;;;;5074672;28;20476;-53
2021/12/12 16:11:18;;;;;;;26.35;14.13;;;8.10;97.80;;;;;;5074951;28;20473;-51
2021/12/12 16:13:47;;;;;;;21.75;14.90;;;8.00;97.80;;;;;;5074260;28;20067;-51
2021/12/12 16:16:17;;;;;;;21.80;14.98;;;8.10;97.90;;;;;;5074158;28;20017;-49
2021/12/12 16:18:48;;;;;;;27.65;14.18;;;8.10;97.90;;;;;;5074360;28;20031;-50
2021/12/12 16:21:17;;;;;;;23.17;15.15;;;8.00;97.90;;;;;;5055941;28;20093;-49
2021/12/12 16:23:52;;;;;;;23.33;14.45;;;8.10;97.90;;;;;;5074263;28;20013;-50
2021/12/12 16:26:30;;;;;;;24.75;15.85;;;8.20;97.90;;;;;;5073323;28;20150;-52
2021/12/12 16:29:10;;;;;;;31.85;17.50;;;8.20;97.90;;;;;;5074413;28;20032;-50
2021/12/12 16:31:36;;;;;;;;;;;8.20;97.90;;;;;;5074518;28;20016;-53
2021/12/12 16:34:07;;;;;;;23.75;15.73;;;8.20;97.80;;;;;;5074014;28;20429;-52
2021/12/12 16:36:56;;;;;;;27.13;16.67;;;8.20;97.80;;;;;;5074435;28;20104;-52
2021/12/12 16:39:27;;;;;;;24.55;17.67;;;8.20;97.80;;;;;;5056159;28;20034;-51
2021/12/12 16:42:00;;;;;;;26.38;16.30;;;8.30;97.80;;;;;;5074254;28;20028;-51
2021/12/12 16:44:35;;;;;;;27.65;17.23;;;8.20;97.80;;;;;;5074738;28;20464;-53
2021/12/12 16:47:06;;;;;;;29.35;16.40;;;8.20;97.80;;;;;;5074123;28;20020;-49
2021/12/12 16:49:36;;;;;;;25.73;16.73;;;8.30;97.80;;;;;;5056415;28;20021;-49
2021/12/12 16:52:13;;;;;;;27.17;16.27;;;8.30;97.80;;;;;;5074052;28;20028;-50
2021/12/12 16:54:43;;;;;;;28.00;17.83;;;8.30;97.80;;;;;;5074339;28;20036;-52
2021/12/12 16:57:13;;;;;;;29.23;18.80;;;8.30;97.80;;;;;;5073953;28;20049;-51
2021/12/12 16:59:43;;;;;;;29.20;18.10;;;8.30;97.90;;;;;;5074043;28;20064;-51
2021/12/12 17:02:18;;;;;;;27.48;16.65;;;8.30;97.90;;;;;;5074099;28;20094;-50
2021/12/12 17:04:46;;;;;;;25.92;15.45;;;8.30;97.90;;;;;;5073956;28;20103;-49
2021/12/12 17:07:15;;;;;;;18.58;11.50;;;8.30;97.90;;;;;;5073483;28;20130;-54
2021/12/12 17:09:50;;;;;;;24.60;17.63;;;8.30;97.90;;;;;;5073462;28;20133;-50
2021/12/12 17:12:32;;;;;;;28.67;18.95;;;8.30;97.90;;;;;;5073478;28;20071;-51
2021/12/12 17:15:06;;;;;;;28.33;17.58;;;8.30;97.90;;;;;;5073610;28;20035;-52
2021/12/12 17:17:37;;;;;;;26.52;18.92;;;8.30;97.90;;;;;;5073239;28;20036;-52
2021/12/12 17:20:15;;;;;;;29.35;18.25;;;8.30;97.90;;;;;;5055246;28;20036;-53
2021/12/12 17:22:47;;;;;;;29.55;17.80;;;8.30;97.90;;;;;;5073485;28;20115;-55
2021/12/12 17:25:14;;;;;;;32.75;18.13;;;8.40;98.00;;;;;;5072939;28;20028;-50
2021/12/12 17:27:41;;;;;;;29.85;19.15;;;8.40;98.00;;;;;;5073072;28;20065;-52
2021/12/12 17:30:14;;;;;;;35.80;19.63;;;8.40;98.00;;;;;;5072816;28;20020;-50
2021/12/12 17:33:07;;;;;;;29.90;19.00;;;8.50;98.00;;;;;;5038915;28;20384;-48
2021/12/12 17:35:41;;;;;;;40.15;22.80;;;8.40;98.00;;;;;;5072903;28;20048;-49
2021/12/12 17:38:20;;;;;;;36.42;23.83;;;8.50;98.00;;;;;;5073109;28;20460;-49
2021/12/12 17:40:54;;;;;;;34.70;18.60;;;8.40;98.00;;;;;;5073209;28;20534;-49
2021/12/12 17:43:51;;;;;;;36.05;21.83;;;8.40;98.00;;;;;;5072797;28;20074;-49
2021/12/12 17:47:01;;;;;;;41.53;21.98;;;8.50;98.00;;;;;;5072713;28;20044;-49
2021/12/12 17:50:04;;;;;;;41.25;24.20;;;8.50;98.00;;;;;;5047466;28;20158;-49
2021/12/12 17:52:51;;;;;;;43.50;25.13;;;8.60;98.00;;;;;;5073220;28;20031;-49
2021/12/12 17:55:39;;;;;;;43.90;23.92;;;8.60;97.90;;;;;;5073046;28;20089;-52
2021/12/12 17:58:33;;;;;;;38.13;19.75;;;8.50;97.90;;;;;;5054582;28;20024;-53
2021/12/12 18:01:42;;;;;;;40.65;23.33;;;8.60;98.00;;;;;;5059145;28;20127;-50
2021/12/12 18:04:11;;;;;;;43.13;24.23;;;8.60;97.90;;;;;;5024848;28;20120;-51
2021/12/12 18:06:45;;;;;;;48.25;27.15;;;8.60;98.00;;;;;;5072699;28;20031;-51
2021/12/12 18:09:18;;;;;;;39.75;21.10;;;8.60;98.00;;;;;;5072737;28;20081;-52
2021/12/12 18:11:46;;;;;;;49.20;26.42;;;8.60;98.00;;;;;;5072492;28;20546;-48
2021/12/12 18:14:14;;;;;;;42.60;23.75;;;8.60;98.00;;;;;;5072464;28;20376;-48
2021/12/12 18:16:46;;;;;;;48.05;24.92;;;8.60;98.00;;;;;;5072786;28;20031;-48
2021/12/12 18:19:56;;;;;;;46.80;24.92;;;8.70;98.00;;;;;;5072750;28;20028;-50
2021/12/12 18:22:27;;;;;;;45.92;22.75;;;8.70;98.00;;;;;;5072585;28;20039;-53
2021/12/12 18:24:54;;;;;;;42.42;23.52;;;8.70;98.00;;;;;;5072815;28;20103;-52
2021/12/12 18:27:28;;;;;;;50.05;25.48;;;8.70;98.00;;;;;;5072210;28;20065;-51
2021/12/12 18:29:59;;;;;;;50.65;26.70;;;8.80;98.00;;;;;;5072612;28;20108;-49
2021/12/12 18:32:46;;;;;;;49.60;25.85;;;8.80;98.00;;;;;;5073065;28;20036;-50
2021/12/12 18:35:21;;;;;;;56.83;24.90;;;8.80;98.00;;;;;;5072820;28;20107;-51
2021/12/12 18:37:55;;;;;;;47.92;24.08;;;8.80;98.00;;;;;;5072734;28;20063;-50
2021/12/12 18:40:29;;;;;;;58.33;27.15;;;8.80;98.00;;;;;;5054639;28;20127;-49
2021/12/12 18:42:56;;;;;;;66.97;30.08;;;8.80;97.90;;;;;;5072280;28;20024;-52
2021/12/12 18:45:31;;;;;;;59.25;29.35;;;8.80;97.90;;;;;;5072487;28;20017;-52
2021/12/12 18:47:59;;;;;;;72.05;32.35;;;8.80;97.90;;;;;;5073324;28;20099;-52
2021/12/12 18:50:34;;;;;;;60.63;28.98;;;8.90;97.90;;;;;;5076584;28;20031;-52
2021/12/12 18:53:06;;;;;;;61.55;29.58;;;8.90;97.90;;;;;;5076118;28;20024;-50
2021/12/12 18:55:34;;;;;;;60.83;27.17;;;8.80;97.80;;;;;;5076117;28;20025;-49
2021/12/12 18:58:14;;;;;;;55.17;27.30;;;8.80;97.90;;;;;;5076458;28;20017;-50
2021/12/12 19:00:48;;;;;;;61.50;28.80;;;8.80;97.90;;;;;;5076271;28;20035;-50
2021/12/12 19:03:19;;;;;;;59.88;28.55;;;8.80;97.90;;;;;;5076420;28;20275;-50
2021/12/12 19:05:49;;;;;;;59.70;30.27;;;8.80;97.90;;;;;;5076476;28;20021;-51
2021/12/12 19:08:25;;;;;;;64.70;29.05;;;8.80;97.90;;;;;;5058132;28;20017;-49
2021/12/12 19:10:55;;;;;;;59.40;29.10;;;8.80;97.90;;;;;;5075917;28;20480;-49
2021/12/12 19:13:31;;;;;;;68.60;31.35;;;8.90;97.80;;;;;;5076380;28;20093;-52
2021/12/12 19:16:01;;;;;;;67.13;32.65;;;8.90;97.90;;;;;;5075877;28;20062;-49
2021/12/12 19:18:36;;;;;;;69.53;32.67;;;8.80;97.80;;;;;;5075719;28;20097;-49
2021/12/12 19:21:22;;;;;;;63.85;28.27;;;8.90;97.80;;;;;;5075708;28;20096;-49
2021/12/12 19:23:54;;;;;;;68.68;30.17;;;8.90;97.80;;;;;;5075730;28;20035;-53
2021/12/12 19:26:23;;;;;;;57.40;29.20;;;8.90;97.90;;;;;;5076625;28;20016;-49
2021/12/12 19:28:53;;;;;;;66.40;28.40;;;8.90;97.90;;;;;;5076335;28;20031;-51
2021/12/12 19:31:22;;;;;;;65.75;30.77;;;8.90;97.90;;;;;;5061658;28;20089;-38
2021/12/12 19:34:03;;;;;;;77.18;33.30;;;8.90;97.80;;;;;;5076209;28;20108;-39
2021/12/12 19:36:35;;;;;;;70.75;31.02;;;9.00;97.90;;;;;;5057873;28;20035;-39
2021/12/12 19:39:09;;;;;;;66.60;28.65;;;9.00;97.90;;;;;;5076328;28;20039;-39
2021/12/12 19:41:34;;;;;;;79.95;36.15;;;9.00;97.90;;;;;;5074988;28;20025;-39
2021/12/12 19:44:03;;;;;;;91.28;36.20;;;9.00;97.90;;;;;;5075805;28;20491;-39
2021/12/12 19:46:32;;;;;;;72.45;33.90;;;9.00;97.90;;;;;;5075122;28;20089;-39
2021/12/12 19:49:04;;;;;;;108.10;40.45;;;9.10;97.90;;;;;;5075912;28;20199;-39
2021/12/12 19:51:35;;;;;;;104.72;39.55;;;9.10;97.90;;;;;;5058125;28;20028;-39
2021/12/12 19:54:15;;;;;;;108.32;41.45;;;9.10;97.90;;;;;;5075600;28;20024;-42
2021/12/12 19:56:47;;;;;;;98.55;38.10;;;9.10;97.90;;;;;;5075055;28;20072;-39
2021/12/12 19:59:18;;;;;;;114.65;39.63;;;9.00;97.90;;;;;;5074864;28;20029;-38
2021/12/12 20:01:44;;;;;;;105.28;37.95;;;9.00;97.90;;;;;;5075012;28;20033;-38
2021/12/12 20:04:20;;;;;;;99.32;38.60;;;9.00;97.90;;;;;;5075294;28;20024;-38
2021/12/12 20:06:50;;;;;;;102.28;39.40;;;9.00;97.90;;;;;;5074933;28;20024;-37
2021/12/12 20:09:21;;;;;;;120.57;42.47;;;9.10;97.80;;;;;;5056895;28;20112;-38
2021/12/12 20:12:13;;;;;;;106.13;39.03;;;9.00;97.90;;;;;;5074861;28;20028;-39
2021/12/12 20:14:45;;;;;;;114.00;41.70;;;9.10;97.80;;;;;;5077909;28;20028;-39
2021/12/12 20:17:15;;;;;;;108.47;38.03;;;9.10;97.80;;;;;;5074965;28;20032;-39
2021/12/12 20:19:49;;;;;;;117.70;41.53;;;9.00;97.80;;;;;;5074950;28;20059;-39
2021/12/12 20:22:24;;;;;;;114.00;41.95;;;9.10;97.80;;;;;;5075778;28;20067;-40
2021/12/12 20:24:52;;;;;;;111.32;44.60;;;9.00;97.80;;;;;;5056546;28;20489;-39
2021/12/12 20:27:31;;;;;;;126.15;42.65;;;9.10;97.80;;;;;;5074821;28;20016;-39
2021/12/12 20:30:11;;;;;;;131.10;42.08;;;9.10;97.90;;;;;;5056226;28;20059;-38
2021/12/12 20:32:42;;;;;;;113.35;42.47;;;9.20;97.90;;;;;;5058437;28;20092;-40
2021/12/12 20:35:22;;;;;;;116.97;45.95;;;9.10;97.80;;;;;;5056381;28;20521;-37
2021/12/12 20:37:58;;;;;;;114.45;43.08;;;9.10;97.80;;;;;;5074220;28;20033;-39
2021/12/12 20:40:27;;;;;;;103.88;42.20;;;9.10;97.80;;;;;;5074436;28;20024;-38
2021/12/12 20:42:56;;;;;;;112.85;41.55;;;9.10;97.80;;;;;;5074458;28;20021;-38
2021/12/12 20:45:28;;;;;;;118.85;43.38;;;9.20;97.80;;;;;;5074823;28;20126;-38
2021/12/12 20:47:57;;;;;;;119.18;45.30;;;9.20;97.80;;;;;;5056532;28;20032;-39
2021/12/12 20:50:27;;;;;;;142.38;49.58;;;9.30;97.80;;;;;;5074323;28;20042;-39
2021/12/12 20:53:07;;;;;;;132.48;47.35;;;9.30;97.80;;;;;;5073907;28;20029;-38
2021/12/12 20:55:42;;;;;;;130.77;51.38;;;9.30;97.80;;;;;;5074125;28;20552;-38
2021/12/12 20:58:12;;;;;;;128.73;46.40;;;9.30;97.80;;;;;;5056146;28;20029;-38
2021/12/12 21:00:50;;;;;;;119.90;44.40;;;9.30;97.80;;;;;;5056068;28;20040;-40
2021/12/12 21:03:37;;;;;;;103.70;43.45;;;9.40;97.70;;;;;;5056020;28;20086;-40
2021/12/12 21:06:10;;;;;;;117.57;44.50;;;9.40;97.70;;;;;;5041250;28;20468;-38
2021/12/12 21:08:41;;;;;;;112.78;44.22;;;9.40;97.70;;;;;;5039754;28;20082;-38
2021/12/12 21:11:10;;;;;;;120.80;46.70;;;9.40;97.70;;;;;;5056030;28;20025;-39
2021/12/12 21:13:41;;;;;;;94.70;40.40;;;9.40;97.70;;;;;;5056155;28;20029;-38
2021/12/12 21:16:10;;;;;;;114.40;45.28;;;9.40;97.70;;;;;;5056370;28;20483;-39
2021/12/12 21:18:42;;;;;;;99.13;41.95;;;9.50;97.70;;;;;;5056680;28;20021;-39
2021/12/12 21:21:12;;;;;;;105.35;41.25;;;9.50;97.70;;;;;;5074241;28;20422;-38
2021/12/12 21:23:44;;;;;;;108.88;41.13;;;9.50;97.60;;;;;;5056728;28;20021;-37
2021/12/12 21:26:15;;;;;;;109.00;44.45;;;9.50;97.60;;;;;;5074144;28;20095;-41
2021/12/12 21:28:48;;;;;;;105.80;43.72;;;9.50;97.70;;;;;;5074023;28;20099;-38
2021/12/12 21:31:30;;;;;;;89.82;42.00;;;9.50;97.60;;;;;;5056616;28;20411;-38
2021/12/12 21:34:19;;;;;;;91.60;35.80;;;9.50;97.60;;;;;;5055667;28;20035;-38
2021/12/12 21:36:58;;;;;;;82.45;37.50;;;9.50;97.60;;;;;;5074010;28;20066;-38
2021/12/12 21:40:14;;;;;;;80.03;34.97;;;9.50;97.70;;;;;;5074304;28;20028;-39
2021/12/12 21:42:48;;;;;;;99.60;42.25;;;9.50;97.70;;;;;;5066880;28;20044;-39
2021/12/12 21:45:26;;;;;;;98.28;40.30;;;9.60;97.70;;;;;;5073957;28;20047;-39
2021/12/12 21:47:58;;;;;;;110.65;42.20;;;9.50;97.70;;;;;;5073900;28;20101;-40
2021/12/12 21:50:38;;;;;;;110.00;43.25;;;9.50;97.70;;;;;;5055554;28;20029;-39
2021/12/12 21:53:07;;;;;;;105.70;43.95;;;9.60;97.70;;;;;;5073926;28;20112;-39
2021/12/12 21:55:47;;;;;;;100.13;43.88;;;9.60;97.70;;;;;;5073765;28;20078;-39
2021/12/12 21:58:27;;;;;;;111.97;43.80;;;9.60;97.70;;;;;;5073677;28;20021;-39
2021/12/12 22:01:06;;;;;;;115.22;42.33;;;9.60;97.70;;;;;;5073135;28;20035;-39
2021/12/12 22:03:48;;;;;;;99.53;43.15;;;9.60;97.70;;;;;;5073379;28;20024;-37
2021/12/12 22:06:17;;;;;;;105.20;39.80;;;9.60;97.70;;;;;;5073637;28;20051;-37
2021/12/12 22:08:47;;;;;;;115.30;44.67;;;9.60;97.70;;;;;;5073437;28;20016;-38
2021/12/12 22:11:14;;;;;;;91.28;38.85;;;9.60;97.70;;;;;;5073804;28;20107;-38
2021/12/12 22:13:46;;;;;;;83.65;35.33;;;9.60;97.70;;;;;;5055597;28;20082;-37
2021/12/12 22:16:20;;;;;;;109.25;41.88;;;9.60;97.70;;;;;;5057114;28;20511;-39
2021/12/12 22:18:56;;;;;;;136.77;53.47;;;9.60;97.60;;;;;;5074403;28;20469;-38
2021/12/12 22:21:23;;;;;;;124.13;44.13;;;9.60;97.60;;;;;;5073942;28;20039;-39
2021/12/12 22:23:53;;;;;;;105.72;42.72;;;9.60;97.60;;;;;;5077543;28;20111;-37
2021/12/12 22:26:19;;;;;;;;;;;9.60;97.60;;;;;;5078350;28;20021;-38
2021/12/12 22:28:49;;;;;;;112.00;42.85;;;9.70;97.60;;;;;;5077304;28;19904;-38
2021/12/12 22:31:22;;;;;;;104.20;41.95;;;9.70;97.60;;;;;;5076699;28;20364;-38
2021/12/12 22:34:11;;;;;;;101.13;39.78;;;9.70;97.50;;;;;;5076819;28;20499;-37
2021/12/12 22:36:43;;;;;;;95.53;39.65;;;9.60;97.50;;;;;;5075198;28;20037;-38
2021/12/12 22:39:15;;;;;;;111.57;44.03;;;9.60;97.50;;;;;;5076988;28;20035;-38
2021/12/12 22:41:46;;;;;;;96.72;39.72;;;9.70;97.50;;;;;;5076695;28;20029;-38
2021/12/12 22:44:18;;;;;;;106.90;42.28;;;9.60;97.50;;;;;;5076417;28;20020;-38
2021/12/12 22:46:47;;;;;;;97.60;42.95;;;9.60;97.50;;;;;;5077836;28;20020;-38
2021/12/12 22:49:24;;;;;;;90.82;39.67;;;9.60;97.50;;;;;;5076916;28;20094;-38
2021/12/12 22:51:57;;;;;;;94.32;41.88;;;9.70;97.50;;;;;;5076361;28;20034;-37
2021/12/12 22:54:31;;;;;;;100.15;42.95;;;9.60;97.50;;;;;;5076149;28;20107;-37
2021/12/12 22:57:08;;;;;;;96.47;41.92;;;9.60;97.50;;;;;;5059290;28;20044;-37
